createdAt,value
2018-08-31T00:00:34.934Z,935.17
2018-08-31T00:01:35.056Z,935.16
2018-08-31T00:02:34.967Z,935.19
2018-08-31T00:03:34.980Z,935.17
2018-08-31T00:04:34.998Z,935.16
2018-08-31T00:05:34.997Z,935.18
2018-08-31T00:06:35.181Z,935.18
2018-08-31T00:07:35.049Z,935.21
2018-08-31T00:08:35.061Z,935.18
2018-08-31T00:09:35.074Z,935.18
2018-08-31T00:10:35.095Z,935.21
2018-08-31T00:11:35.246Z,935.19
2018-08-31T00:12:35.130Z,935.18
2018-08-31T00:13:35.140Z,935.14
2018-08-31T00:14:35.558Z,935.15
2018-08-31T00:15:35.177Z,935.17
2018-08-31T00:16:35.291Z,935.17
2018-08-31T00:17:35.204Z,935.18
2018-08-31T00:18:35.222Z,935.15
2018-08-31T00:19:35.235Z,935.17
2018-08-31T00:20:35.236Z,935.15
2018-08-31T00:21:35.365Z,935.17
2018-08-31T00:22:35.276Z,935.15
2018-08-31T00:23:35.285Z,935.14
2018-08-31T00:24:35.344Z,935.16
2018-08-31T00:25:35.314Z,935.21
2018-08-31T00:26:35.443Z,935.18
2018-08-31T00:27:35.355Z,935.13
2018-08-31T00:28:35.375Z,935.17
2018-08-31T00:29:35.391Z,935.14
2018-08-31T00:30:35.405Z,935.19
2018-08-31T00:31:35.570Z,935.17
2018-08-31T00:32:35.642Z,935.16
2018-08-31T00:33:35.449Z,935.19
2018-08-31T00:34:35.544Z,935.18
2018-08-31T00:35:35.478Z,935.16
2018-08-31T00:36:35.604Z,935.19
2018-08-31T00:37:35.510Z,935.22
2018-08-31T00:38:35.532Z,935.23
2018-08-31T00:39:35.544Z,935.28
2018-08-31T00:40:35.556Z,935.23
2018-08-31T00:41:35.678Z,935.25
2018-08-31T00:42:35.585Z,935.29
2018-08-31T00:43:35.591Z,935.28
2018-08-31T00:44:35.608Z,935.28
2018-08-31T00:45:35.637Z,935.29
2018-08-31T00:46:35.651Z,935.28
2018-08-31T00:47:35.768Z,935.27
2018-08-31T00:48:35.666Z,935.27
2018-08-31T00:49:35.680Z,935.27
2018-08-31T00:50:35.725Z,935.27
2018-08-31T00:51:35.728Z,935.28
2018-08-31T00:52:35.892Z,935.25
2018-08-31T00:53:35.758Z,935.26
2018-08-31T00:54:35.771Z,935.30
2018-08-31T00:55:35.791Z,935.26
2018-08-31T00:56:35.805Z,935.27
2018-08-31T00:57:35.913Z,935.27
2018-08-31T00:58:35.832Z,935.26
2018-08-31T00:59:35.832Z,935.28
2018-08-31T01:00:35.865Z,935.29
2018-08-31T01:01:35.876Z,935.30
2018-08-31T01:02:35.991Z,935.30
2018-08-31T01:03:35.909Z,935.33
2018-08-31T01:04:35.926Z,935.32
2018-08-31T01:05:35.947Z,935.32
2018-08-31T01:06:35.956Z,935.33
2018-08-31T01:07:36.079Z,935.33
2018-08-31T01:08:35.996Z,935.28
2018-08-31T01:09:36.003Z,935.31
2018-08-31T01:10:36.016Z,935.29
2018-08-31T01:11:36.028Z,935.27
2018-08-31T01:12:36.197Z,935.27
2018-08-31T01:13:36.053Z,935.26
2018-08-31T01:14:36.082Z,935.27
2018-08-31T01:15:36.097Z,935.25
2018-08-31T01:16:36.113Z,935.28
2018-08-31T01:17:36.277Z,935.26
2018-08-31T01:18:36.136Z,935.30
2018-08-31T01:19:36.140Z,935.31
2018-08-31T01:20:36.168Z,935.27
2018-08-31T01:21:36.190Z,935.28
2018-08-31T01:22:36.299Z,935.27
2018-08-31T01:23:36.219Z,935.29
2018-08-31T01:24:36.228Z,935.28
2018-08-31T01:25:36.242Z,935.28
2018-08-31T01:26:36.260Z,935.29
2018-08-31T01:27:36.377Z,935.28
2018-08-31T01:28:36.275Z,935.32
2018-08-31T01:29:36.310Z,935.33
2018-08-31T01:30:36.318Z,935.29
2018-08-31T01:31:36.335Z,935.33
2018-08-31T01:32:36.460Z,935.36
2018-08-31T01:33:36.360Z,935.35
2018-08-31T01:34:36.382Z,935.35
2018-08-31T01:35:36.396Z,935.38
2018-08-31T01:36:36.413Z,935.39
2018-08-31T01:37:36.523Z,935.38
2018-08-31T01:38:36.428Z,935.39
2018-08-31T01:39:36.445Z,935.43
2018-08-31T01:40:36.481Z,935.42
2018-08-31T01:41:36.544Z,935.44
2018-08-31T01:42:36.656Z,935.44
2018-08-31T01:43:36.517Z,935.43
2018-08-31T01:44:36.531Z,935.44
2018-08-31T01:45:36.552Z,935.42
2018-08-31T01:46:36.559Z,935.46
2018-08-31T01:47:36.577Z,935.45
2018-08-31T01:48:36.680Z,935.39
2018-08-31T01:49:36.601Z,935.40
2018-08-31T01:50:36.619Z,935.41
2018-08-31T01:51:36.638Z,935.39
2018-08-31T01:52:36.659Z,935.39
2018-08-31T01:53:36.823Z,935.38
2018-08-31T01:54:36.693Z,935.39
2018-08-31T01:55:36.697Z,935.36
2018-08-31T01:56:36.707Z,935.36
2018-08-31T01:57:36.715Z,935.39
2018-08-31T01:58:36.842Z,935.37
2018-08-31T01:59:37.706Z,935.40
2018-08-31T02:00:37.306Z,935.44
2018-08-31T02:01:36.781Z,935.44
2018-08-31T02:02:36.805Z,935.40
2018-08-31T02:03:36.939Z,935.42
2018-08-31T02:04:36.837Z,935.41
2018-08-31T02:05:36.847Z,935.40
2018-08-31T02:06:36.861Z,935.44
2018-08-31T02:07:36.903Z,935.43
2018-08-31T02:08:36.996Z,935.43
2018-08-31T02:09:36.906Z,935.41
2018-08-31T02:10:36.925Z,935.43
2018-08-31T02:11:36.939Z,935.41
2018-08-31T02:12:36.953Z,935.40
2018-08-31T02:13:37.068Z,935.38
2018-08-31T02:14:36.978Z,935.38
2018-08-31T02:15:36.979Z,935.38
2018-08-31T02:16:37.007Z,935.35
2018-08-31T02:17:37.031Z,935.34
2018-08-31T02:18:37.124Z,935.35
2018-08-31T02:19:37.057Z,935.37
2018-08-31T02:20:37.069Z,935.33
2018-08-31T02:21:37.087Z,935.38
2018-08-31T02:22:37.100Z,935.37
2018-08-31T02:23:37.265Z,935.33
2018-08-31T02:24:37.134Z,935.35
2018-08-31T02:25:37.130Z,935.35
2018-08-31T02:26:37.157Z,935.35
2018-08-31T02:27:37.176Z,935.39
2018-08-31T02:28:37.341Z,935.35
2018-08-31T02:29:37.204Z,935.31
2018-08-31T02:30:37.217Z,935.34
2018-08-31T02:31:37.230Z,935.34
2018-08-31T02:32:37.249Z,935.32
2018-08-31T02:33:37.355Z,935.34
2018-08-31T02:34:37.279Z,935.31
2018-08-31T02:35:37.288Z,935.30
2018-08-31T02:36:37.304Z,935.36
2018-08-31T02:37:37.321Z,935.36
2018-08-31T02:38:37.485Z,935.34
2018-08-31T02:39:37.357Z,935.31
2018-08-31T02:40:37.364Z,935.29
2018-08-31T02:41:37.383Z,935.32
2018-08-31T02:42:37.398Z,935.33
2018-08-31T02:43:37.557Z,935.32
2018-08-31T02:44:37.426Z,935.30
2018-08-31T02:45:37.433Z,935.28
2018-08-31T02:46:37.454Z,935.28
2018-08-31T02:47:37.468Z,935.28
2018-08-31T02:48:37.637Z,935.26
2018-08-31T02:49:37.502Z,935.25
2018-08-31T02:50:37.513Z,935.23
2018-08-31T02:51:37.523Z,935.25
2018-08-31T02:52:37.539Z,935.27
2018-08-31T02:53:37.553Z,935.26
2018-08-31T02:54:37.661Z,935.27
2018-08-31T02:55:37.584Z,935.27
2018-08-31T02:56:37.596Z,935.29
2018-08-31T02:57:37.611Z,935.29
2018-08-31T02:58:37.640Z,935.28
2018-08-31T02:59:37.639Z,935.33
2018-08-31T03:00:37.759Z,935.31
2018-08-31T03:01:37.671Z,935.30
2018-08-31T03:02:37.695Z,935.32
2018-08-31T03:03:37.695Z,935.28
2018-08-31T03:04:37.714Z,935.31
2018-08-31T03:05:37.827Z,935.31
2018-08-31T03:06:37.739Z,935.29
2018-08-31T03:07:37.760Z,935.29
2018-08-31T03:08:37.771Z,935.28
2018-08-31T03:09:37.804Z,935.25
2018-08-31T03:10:37.907Z,935.27
2018-08-31T03:11:37.879Z,935.22
2018-08-31T03:12:37.834Z,935.20
2018-08-31T03:13:37.844Z,935.22
2018-08-31T03:14:37.858Z,935.19
2018-08-31T03:15:37.959Z,935.22
2018-08-31T03:16:37.886Z,935.21
2018-08-31T03:17:37.898Z,935.17
2018-08-31T03:18:37.922Z,935.16
2018-08-31T03:19:37.930Z,935.13
2018-08-31T03:20:38.097Z,935.10
2018-08-31T03:21:37.963Z,935.14
2018-08-31T03:22:37.972Z,935.12
2018-08-31T03:23:37.988Z,935.10
2018-08-31T03:24:37.999Z,935.08
2018-08-31T03:25:38.164Z,935.09
2018-08-31T03:26:38.011Z,935.11
2018-08-31T03:27:38.045Z,935.11
2018-08-31T03:28:38.060Z,935.07
2018-08-31T03:29:38.074Z,935.11
2018-08-31T03:30:38.335Z,935.10
2018-08-31T03:31:38.096Z,935.05
2018-08-31T03:32:38.654Z,935.08
2018-08-31T03:33:39.175Z,935.04
2018-08-31T03:34:38.880Z,935.04
2018-08-31T03:35:38.833Z,935.01
2018-08-31T03:36:38.920Z,935.02
2018-08-31T03:38:38.717Z,935.08
2018-08-31T03:39:38.755Z,935.09
2018-08-31T03:40:38.478Z,935.06
2018-08-31T03:41:38.797Z,935.04
2018-08-31T03:42:38.260Z,935.00
2018-08-31T03:43:38.276Z,935.03
2018-08-31T03:44:38.283Z,935.04
2018-08-31T03:45:38.401Z,935.06
2018-08-31T03:46:38.309Z,935.08
2018-08-31T03:47:38.331Z,935.08
2018-08-31T03:48:38.349Z,935.09
2018-08-31T03:49:38.355Z,935.09
2018-08-31T03:50:38.456Z,935.07
2018-08-31T03:51:38.384Z,935.06
2018-08-31T03:52:38.402Z,935.05
2018-08-31T03:53:38.406Z,935.02
2018-08-31T03:54:38.428Z,935.00
2018-08-31T03:55:38.545Z,935.00
2018-08-31T03:56:38.463Z,934.98
2018-08-31T03:57:38.471Z,934.98
2018-08-31T03:58:38.483Z,934.99
2018-08-31T03:59:38.479Z,934.96
2018-08-31T04:00:38.617Z,934.97
2018-08-31T04:01:38.518Z,934.99
2018-08-31T04:02:38.542Z,934.96
2018-08-31T04:03:38.536Z,934.98
2018-08-31T04:04:38.569Z,934.96
2018-08-31T04:05:38.734Z,934.93
2018-08-31T04:06:38.594Z,934.94
2018-08-31T04:07:38.597Z,934.94
2018-08-31T04:08:38.625Z,934.91
2018-08-31T04:09:38.643Z,934.91
2018-08-31T04:10:38.739Z,934.88
2018-08-31T04:11:38.663Z,934.86
2018-08-31T04:12:38.675Z,934.86
2018-08-31T04:13:38.692Z,934.83
2018-08-31T04:14:38.707Z,934.87
2018-08-31T04:15:38.822Z,934.85
2018-08-31T04:16:38.725Z,934.86
2018-08-31T04:17:38.750Z,934.88
2018-08-31T04:18:38.770Z,934.84
2018-08-31T04:19:38.777Z,934.80
2018-08-31T04:20:38.942Z,934.82
2018-08-31T04:21:38.810Z,934.79
2018-08-31T04:22:38.826Z,934.78
2018-08-31T04:23:38.821Z,934.79
2018-08-31T04:24:38.855Z,934.78
2018-08-31T04:25:38.953Z,934.76
2018-08-31T04:26:38.865Z,934.77
2018-08-31T04:27:38.890Z,934.75
2018-08-31T04:28:38.902Z,934.74
2018-08-31T04:29:38.916Z,934.75
2018-08-31T04:30:39.575Z,934.71
2018-08-31T04:31:38.946Z,934.70
2018-08-31T04:32:38.964Z,934.67
2018-08-31T04:33:38.972Z,934.70
2018-08-31T04:34:38.989Z,934.68
2018-08-31T04:35:39.137Z,934.61
2018-08-31T04:36:39.002Z,934.59
2018-08-31T04:37:39.032Z,934.61
2018-08-31T04:38:39.044Z,934.60
2018-08-31T04:39:39.063Z,934.64
2018-08-31T04:40:39.178Z,934.65
2018-08-31T04:41:39.082Z,934.60
2018-08-31T04:42:39.101Z,934.58
2018-08-31T04:43:39.114Z,934.54
2018-08-31T04:44:39.129Z,934.54
2018-08-31T04:45:39.244Z,934.52
2018-08-31T04:46:39.158Z,934.51
2018-08-31T04:47:39.165Z,934.49
2018-08-31T04:48:39.186Z,934.47
2018-08-31T04:49:39.195Z,934.46
2018-08-31T04:50:39.316Z,934.45
2018-08-31T04:51:39.217Z,934.44
2018-08-31T04:52:39.237Z,934.45
2018-08-31T04:53:39.257Z,934.46
2018-08-31T04:54:39.260Z,934.46
2018-08-31T04:55:39.379Z,934.43
2018-08-31T04:56:39.295Z,934.44
2018-08-31T04:57:39.303Z,934.39
2018-08-31T04:58:39.321Z,934.40
2018-08-31T04:59:39.316Z,934.38
2018-08-31T05:00:39.497Z,934.40
2018-08-31T05:01:39.369Z,934.41
2018-08-31T05:02:39.357Z,934.41
2018-08-31T05:03:39.393Z,934.41
2018-08-31T05:04:39.409Z,934.42
2018-08-31T05:05:39.568Z,934.43
2018-08-31T05:06:39.429Z,934.40
2018-08-31T05:07:39.443Z,934.38
2018-08-31T05:08:39.458Z,934.36
2018-08-31T05:09:39.455Z,934.38
2018-08-31T05:10:39.683Z,934.33
2018-08-31T05:11:39.502Z,934.34
2018-08-31T05:12:39.524Z,934.36
2018-08-31T05:13:39.526Z,934.35
2018-08-31T05:14:39.537Z,934.35
2018-08-31T05:15:39.555Z,934.35
2018-08-31T05:16:39.717Z,934.29
2018-08-31T05:17:39.563Z,934.28
2018-08-31T05:18:39.593Z,934.25
2018-08-31T05:19:39.611Z,934.30
2018-08-31T05:20:39.620Z,934.23
2018-08-31T05:21:39.734Z,934.25
2018-08-31T05:22:39.675Z,934.22
2018-08-31T05:23:39.663Z,934.20
2018-08-31T05:24:39.669Z,934.19
2018-08-31T05:25:39.690Z,934.18
2018-08-31T05:26:39.804Z,934.17
2018-08-31T05:27:39.712Z,934.14
2018-08-31T05:28:39.726Z,934.08
2018-08-31T05:29:39.739Z,934.06
2018-08-31T05:30:39.760Z,934.08
2018-08-31T05:31:39.906Z,934.08
2018-08-31T05:32:39.787Z,934.07
2018-08-31T05:33:39.805Z,934.10
2018-08-31T05:34:39.792Z,934.08
2018-08-31T05:35:39.824Z,934.07
2018-08-31T05:36:39.937Z,934.06
2018-08-31T05:37:39.850Z,934.02
2018-08-31T05:38:39.870Z,934.05
2018-08-31T05:39:39.879Z,934.02
2018-08-31T05:40:39.899Z,933.99
2018-08-31T05:41:40.002Z,934.01
2018-08-31T05:42:39.923Z,933.99
2018-08-31T05:43:39.929Z,934.02
2018-08-31T05:44:39.946Z,933.96
2018-08-31T05:45:39.960Z,933.95
2018-08-31T05:46:40.221Z,933.92
2018-08-31T05:47:39.991Z,933.91
2018-08-31T05:48:40.000Z,933.88
2018-08-31T05:49:39.995Z,933.88
2018-08-31T05:50:40.033Z,933.84
2018-08-31T05:51:40.176Z,933.85
2018-08-31T05:52:40.038Z,933.82
2018-08-31T05:53:40.173Z,933.82
2018-08-31T05:54:40.083Z,933.79
2018-08-31T05:55:40.093Z,933.78
2018-08-31T05:56:40.202Z,933.81
2018-08-31T05:57:40.104Z,933.80
2018-08-31T05:58:40.135Z,933.77
2018-08-31T05:59:40.154Z,933.78
2018-08-31T06:00:40.164Z,933.76
2018-08-31T06:01:40.332Z,933.79
2018-08-31T06:02:40.191Z,933.78
2018-08-31T06:03:40.191Z,933.80
2018-08-31T06:04:40.218Z,933.79
2018-08-31T06:05:40.248Z,933.83
2018-08-31T06:06:40.392Z,933.83
2018-08-31T06:07:40.259Z,933.84
2018-08-31T06:08:40.251Z,933.84
2018-08-31T06:09:40.284Z,933.84
2018-08-31T06:10:40.292Z,933.90
2018-08-31T06:11:40.442Z,933.90
2018-08-31T06:12:40.322Z,933.90
2018-08-31T06:13:40.319Z,933.92
2018-08-31T06:14:40.348Z,933.92
2018-08-31T06:15:40.370Z,933.93
2018-08-31T06:16:40.469Z,933.93
2018-08-31T06:17:40.386Z,933.91
2018-08-31T06:18:40.405Z,933.93
2018-08-31T06:19:40.414Z,933.89
2018-08-31T06:20:40.430Z,933.91
2018-08-31T06:21:40.579Z,933.90
2018-08-31T06:22:40.454Z,933.89
2018-08-31T06:23:40.479Z,933.88
2018-08-31T06:24:40.994Z,933.90
2018-08-31T06:25:40.494Z,933.92
2018-08-31T06:26:40.494Z,933.85
2018-08-31T06:27:40.668Z,933.88
2018-08-31T06:28:40.541Z,933.83
2018-08-31T06:29:40.559Z,933.81
2018-08-31T06:30:40.564Z,933.82
2018-08-31T06:31:40.576Z,933.81
2018-08-31T06:32:40.696Z,933.79
2018-08-31T06:33:40.749Z,933.77
2018-08-31T06:34:40.610Z,933.80
2018-08-31T06:35:40.625Z,933.79
2018-08-31T06:36:40.629Z,933.77
2018-08-31T06:37:40.653Z,933.78
2018-08-31T06:38:40.771Z,933.77
2018-08-31T06:39:40.686Z,933.74
2018-08-31T06:40:40.683Z,933.75
2018-08-31T06:41:40.704Z,933.73
2018-08-31T06:42:40.703Z,933.71
2018-08-31T06:43:40.885Z,933.71
2018-08-31T06:44:40.731Z,933.65
2018-08-31T06:45:40.765Z,933.64
2018-08-31T06:46:40.772Z,933.65
2018-08-31T06:47:40.780Z,933.64
2018-08-31T06:48:40.929Z,933.64
2018-08-31T06:49:40.815Z,933.63
2018-08-31T06:50:40.818Z,933.61
2018-08-31T06:51:40.832Z,933.58
2018-08-31T06:52:40.831Z,933.57
2018-08-31T06:53:40.968Z,933.57
2018-08-31T06:54:40.860Z,933.59
2018-08-31T06:55:40.888Z,933.58
2018-08-31T06:56:40.907Z,933.60
2018-08-31T06:57:40.912Z,933.63
2018-08-31T06:58:41.082Z,933.58
2018-08-31T06:59:40.948Z,933.62
2018-08-31T07:00:40.954Z,933.58
2018-08-31T07:01:40.956Z,933.64
2018-08-31T07:02:40.982Z,933.65
2018-08-31T07:03:41.166Z,933.65
2018-08-31T07:04:41.022Z,933.61
2018-08-31T07:05:41.020Z,933.63
2018-08-31T07:06:41.037Z,933.63
2018-08-31T07:07:41.028Z,933.61
2018-08-31T07:08:41.169Z,933.65
2018-08-31T07:09:41.081Z,933.61
2018-08-31T07:10:41.079Z,933.60
2018-08-31T07:11:41.091Z,933.60
2018-08-31T07:12:41.118Z,933.58
2018-08-31T07:13:41.270Z,933.59
2018-08-31T07:14:41.135Z,933.59
2018-08-31T07:15:41.153Z,933.58
2018-08-31T07:16:41.159Z,933.64
2018-08-31T07:17:41.179Z,933.63
2018-08-31T07:18:41.340Z,933.63
2018-08-31T07:19:41.243Z,933.64
2018-08-31T07:20:41.218Z,933.63
2018-08-31T07:21:41.226Z,933.66
2018-08-31T07:22:41.244Z,933.67
2018-08-31T07:23:41.339Z,933.74
2018-08-31T07:24:41.266Z,933.69
2018-08-31T07:25:41.273Z,933.74
2018-08-31T07:26:41.330Z,933.70
2018-08-31T07:27:41.316Z,933.75
2018-08-31T07:28:41.472Z,933.75
2018-08-31T07:29:41.334Z,933.73
2018-08-31T07:30:41.346Z,933.74
2018-08-31T07:31:41.361Z,933.76
2018-08-31T07:32:41.381Z,933.79
2018-08-31T07:33:41.631Z,933.79
2018-08-31T07:34:41.381Z,933.75
2018-08-31T07:35:41.432Z,933.77
2018-08-31T07:36:41.414Z,933.80
2018-08-31T07:37:41.437Z,933.75
2018-08-31T07:38:41.450Z,933.78
2018-08-31T07:39:41.546Z,933.76
2018-08-31T07:40:41.470Z,933.77
2018-08-31T07:41:41.486Z,933.74
2018-08-31T07:42:41.507Z,933.75
2018-08-31T07:43:41.513Z,933.74
2018-08-31T07:44:41.681Z,933.72
2018-08-31T07:45:41.527Z,933.73
2018-08-31T07:46:41.552Z,933.72
2018-08-31T07:47:41.644Z,933.74
2018-08-31T07:48:41.578Z,933.73
2018-08-31T07:49:41.742Z,933.72
2018-08-31T07:50:41.608Z,933.71
2018-08-31T07:51:41.616Z,933.75
2018-08-31T07:52:41.628Z,933.76
2018-08-31T07:53:41.667Z,933.74
2018-08-31T07:54:41.745Z,933.75
2018-08-31T07:55:41.676Z,933.79
2018-08-31T07:56:41.686Z,933.82
2018-08-31T07:57:41.700Z,933.85
2018-08-31T07:58:41.711Z,933.86
2018-08-31T07:59:41.863Z,933.85
2018-08-31T08:00:41.736Z,933.90
2018-08-31T08:01:41.748Z,933.88
2018-08-31T08:02:41.765Z,933.89
2018-08-31T08:03:42.325Z,933.89
2018-08-31T08:04:42.434Z,933.89
2018-08-31T08:05:41.827Z,933.87
2018-08-31T08:06:41.809Z,933.89
2018-08-31T08:07:41.820Z,933.93
2018-08-31T08:08:41.846Z,933.91
2018-08-31T08:09:41.950Z,933.88
2018-08-31T08:10:42.066Z,933.86
2018-08-31T08:11:42.829Z,933.91
2018-08-31T08:12:42.830Z,933.90
2018-08-31T08:13:41.898Z,933.92
2018-08-31T08:15:41.928Z,933.91
2018-08-31T08:16:41.942Z,933.91
2018-08-31T08:17:41.953Z,933.90
2018-08-31T08:18:41.962Z,933.93
2018-08-31T08:19:42.183Z,933.95
2018-08-31T08:20:41.993Z,933.99
2018-08-31T08:21:42.001Z,933.94
2018-08-31T08:22:42.022Z,933.93
2018-08-31T08:23:42.030Z,933.99
2018-08-31T08:24:42.143Z,933.96
2018-08-31T08:25:42.876Z,933.98
2018-08-31T08:26:42.605Z,934.01
2018-08-31T08:27:42.634Z,934.00
2018-08-31T08:28:42.095Z,934.02
2018-08-31T08:29:42.746Z,934.02
2018-08-31T08:30:42.123Z,934.05
2018-08-31T08:31:42.126Z,933.99
2018-08-31T08:32:42.140Z,934.02
2018-08-31T08:33:42.159Z,934.02
2018-08-31T08:34:42.318Z,934.06
2018-08-31T08:35:42.171Z,934.06
2018-08-31T08:36:42.198Z,934.07
2018-08-31T08:37:42.211Z,934.08
2018-08-31T08:38:42.209Z,934.10
2018-08-31T08:39:42.371Z,934.11
2018-08-31T08:40:42.247Z,934.11
2018-08-31T08:41:42.257Z,934.10
2018-08-31T08:42:42.259Z,934.17
2018-08-31T08:43:42.288Z,934.20
2018-08-31T08:44:42.542Z,934.21
2018-08-31T08:45:42.308Z,934.24
2018-08-31T08:46:42.320Z,934.20
2018-08-31T08:47:42.325Z,934.28
2018-08-31T08:48:42.529Z,934.21
2018-08-31T08:49:42.512Z,934.23
2018-08-31T08:50:42.378Z,934.22
2018-08-31T08:51:42.383Z,934.26
2018-08-31T08:52:42.391Z,934.28
2018-08-31T08:53:43.015Z,934.29
2018-08-31T08:54:42.553Z,934.28
2018-08-31T08:55:42.439Z,934.28
2018-08-31T08:56:42.987Z,934.30
2018-08-31T08:57:42.457Z,934.32
2018-08-31T08:58:42.455Z,934.33
2018-08-31T08:59:42.638Z,934.30
2018-08-31T09:00:42.499Z,934.30
2018-08-31T09:01:42.496Z,934.33
2018-08-31T09:02:43.045Z,934.30
2018-08-31T09:03:42.537Z,934.31
2018-08-31T09:04:42.540Z,934.30
2018-08-31T09:05:42.755Z,934.29
2018-08-31T09:06:43.322Z,934.28
2018-08-31T09:07:42.586Z,934.25
2018-08-31T09:08:43.141Z,934.30
2018-08-31T09:09:42.608Z,934.31
2018-08-31T09:10:43.255Z,934.34
2018-08-31T09:11:42.701Z,934.36
2018-08-31T09:12:42.629Z,934.37
2018-08-31T09:13:42.664Z,934.37
2018-08-31T09:14:42.670Z,934.40
2018-08-31T09:15:42.817Z,934.40
2018-08-31T09:16:42.701Z,934.34
2018-08-31T09:17:42.703Z,934.37
2018-08-31T09:18:42.713Z,934.42
2018-08-31T09:19:42.729Z,934.41
2018-08-31T09:20:42.828Z,934.43
2018-08-31T09:21:42.753Z,934.50
2018-08-31T09:22:42.768Z,934.47
2018-08-31T09:23:43.224Z,934.51
2018-08-31T09:24:42.873Z,934.53
2018-08-31T09:25:42.893Z,934.56
2018-08-31T09:26:42.818Z,934.59
2018-08-31T09:27:42.826Z,934.56
2018-08-31T09:28:42.843Z,934.53
2018-08-31T09:29:42.838Z,934.58
2018-08-31T09:30:42.949Z,934.55
2018-08-31T09:31:42.866Z,934.60
2018-08-31T09:32:42.962Z,934.63
2018-08-31T09:33:42.900Z,934.64
2018-08-31T09:34:43.463Z,934.65
2018-08-31T09:35:43.572Z,934.65
2018-08-31T09:36:42.921Z,934.66
2018-08-31T09:37:42.939Z,934.69
2018-08-31T09:38:42.972Z,934.74
2018-08-31T09:39:42.977Z,934.73
2018-08-31T09:40:43.090Z,934.75
2018-08-31T09:41:42.985Z,934.73
2018-08-31T09:42:43.014Z,934.73
2018-08-31T09:43:43.035Z,934.74
2018-08-31T09:44:43.043Z,934.78
2018-08-31T09:45:43.203Z,934.71
2018-08-31T09:46:43.060Z,934.76
2018-08-31T09:47:43.076Z,934.77
2018-08-31T09:48:43.094Z,934.75
2018-08-31T09:49:43.184Z,934.77
2018-08-31T09:50:43.261Z,934.76
2018-08-31T09:51:43.116Z,934.80
2018-08-31T09:52:43.143Z,934.79
2018-08-31T09:53:43.152Z,934.82
2018-08-31T09:54:43.149Z,934.81
2018-08-31T09:55:43.272Z,934.86
2018-08-31T09:56:43.193Z,934.86
2018-08-31T09:57:43.203Z,934.90
2018-08-31T09:58:43.208Z,934.90
2018-08-31T09:59:43.232Z,934.91
2018-08-31T10:00:43.377Z,934.85
2018-08-31T10:01:43.257Z,934.93
2018-08-31T10:02:43.269Z,934.96
2018-08-31T10:03:43.283Z,935.01
2018-08-31T10:04:43.293Z,934.98
2018-08-31T10:05:43.413Z,935.02
2018-08-31T10:06:43.320Z,934.94
2018-08-31T10:07:43.337Z,935.02
2018-08-31T10:08:43.352Z,934.97
2018-08-31T10:09:43.907Z,934.99
2018-08-31T10:10:43.490Z,935.03
2018-08-31T10:11:43.393Z,935.05
2018-08-31T10:12:43.404Z,935.05
2018-08-31T10:13:43.420Z,935.08
2018-08-31T10:14:43.434Z,935.10
2018-08-31T10:15:43.535Z,935.08
2018-08-31T10:16:43.463Z,935.09
2018-08-31T10:17:44.248Z,935.09
2018-08-31T10:18:43.617Z,935.09
2018-08-31T10:19:43.506Z,935.11
2018-08-31T10:20:43.501Z,935.14
2018-08-31T10:21:43.630Z,935.15
2018-08-31T10:22:43.547Z,935.15
2018-08-31T10:23:43.556Z,935.14
2018-08-31T10:24:43.573Z,935.15
2018-08-31T10:25:43.588Z,935.17
2018-08-31T10:26:43.685Z,935.15
2018-08-31T10:27:43.615Z,935.12
2018-08-31T10:28:43.627Z,935.15
2018-08-31T10:29:43.640Z,935.21
2018-08-31T10:30:43.649Z,935.24
2018-08-31T10:31:43.776Z,935.23
2018-08-31T10:32:43.688Z,935.25
2018-08-31T10:33:43.703Z,935.25
2018-08-31T10:34:43.716Z,935.26
2018-08-31T10:35:43.737Z,935.28
2018-08-31T10:36:43.893Z,935.28
2018-08-31T10:37:43.770Z,935.32
2018-08-31T10:38:43.783Z,935.33
2018-08-31T10:39:43.780Z,935.35
2018-08-31T10:40:43.806Z,935.39
2018-08-31T10:41:43.923Z,935.40
2018-08-31T10:42:43.832Z,935.41
2018-08-31T10:43:43.837Z,935.38
2018-08-31T10:44:43.867Z,935.45
2018-08-31T10:45:43.890Z,935.47
2018-08-31T10:46:44.568Z,935.52
2018-08-31T10:47:43.920Z,935.51
2018-08-31T10:48:44.875Z,935.54
2018-08-31T10:49:44.131Z,935.52
2018-08-31T10:50:44.629Z,935.55
2018-08-31T10:52:44.524Z,935.57
2018-08-31T10:53:45.114Z,935.56
2018-08-31T10:54:45.445Z,935.56
2018-08-31T10:55:44.510Z,935.58
2018-08-31T10:56:44.208Z,935.55
2018-08-31T10:57:45.315Z,935.54
2018-08-31T10:58:44.547Z,935.51
2018-08-31T10:59:44.141Z,935.53
2018-08-31T11:00:44.786Z,935.54
2018-08-31T11:01:44.832Z,935.55
2018-08-31T11:02:44.624Z,935.56
2018-08-31T11:03:45.312Z,935.57
2018-08-31T11:05:45.007Z,935.59
2018-08-31T11:06:45.253Z,935.61
2018-08-31T11:08:44.780Z,935.62
2018-08-31T11:09:45.109Z,935.68
2018-08-31T11:10:45.266Z,935.71
2018-08-31T11:11:44.971Z,935.72
2018-08-31T11:12:44.434Z,935.74
2018-08-31T11:13:44.868Z,935.73
2018-08-31T11:15:44.899Z,935.70
2018-08-31T11:16:45.071Z,935.71
2018-08-31T11:17:45.132Z,935.76
2018-08-31T11:18:44.977Z,935.76
2018-08-31T11:19:45.375Z,935.76
2018-08-31T11:21:44.460Z,935.81
2018-08-31T11:22:45.120Z,935.83
2018-08-31T11:23:45.153Z,935.82
2018-08-31T11:24:45.044Z,935.85
2018-08-31T11:25:44.970Z,935.84
2018-08-31T11:26:45.086Z,935.86
2018-08-31T11:27:44.669Z,935.83
2018-08-31T11:28:44.568Z,935.83
2018-08-31T11:29:44.596Z,935.79
2018-08-31T11:30:44.617Z,935.84
2018-08-31T11:31:44.634Z,935.82
2018-08-31T11:32:44.803Z,935.80
2018-08-31T11:33:44.673Z,935.80
2018-08-31T11:34:44.673Z,935.78
2018-08-31T11:35:44.707Z,935.79
2018-08-31T11:36:44.723Z,935.77
2018-08-31T11:37:44.881Z,935.83
2018-08-31T11:38:44.757Z,935.77
2018-08-31T11:39:44.778Z,935.85
2018-08-31T11:40:44.794Z,935.80
2018-08-31T11:41:44.810Z,935.85
2018-08-31T11:42:44.976Z,935.83
2018-08-31T11:43:44.845Z,935.80
2018-08-31T11:44:44.863Z,935.83
2018-08-31T11:45:44.877Z,935.83
2018-08-31T11:46:44.899Z,935.88
2018-08-31T11:47:45.054Z,935.85
2018-08-31T11:48:44.935Z,935.85
2018-08-31T11:49:44.953Z,935.83
2018-08-31T11:50:44.972Z,935.89
2018-08-31T11:51:45.047Z,935.89
2018-08-31T11:52:45.107Z,935.87
2018-08-31T11:53:45.023Z,935.88
2018-08-31T11:54:45.045Z,935.91
2018-08-31T11:55:45.058Z,935.93
2018-08-31T11:56:45.087Z,935.93
2018-08-31T11:57:45.191Z,935.97
2018-08-31T11:58:45.123Z,935.92
2018-08-31T11:59:45.137Z,935.96
2018-08-31T12:00:45.559Z,935.93
2018-08-31T12:01:45.168Z,935.95
2018-08-31T12:02:45.529Z,935.92
2018-08-31T12:03:45.190Z,935.94
2018-08-31T12:04:45.226Z,935.96
2018-08-31T12:05:45.240Z,935.94
2018-08-31T12:06:45.261Z,935.94
2018-08-31T12:07:45.388Z,935.96
2018-08-31T12:08:45.289Z,935.95
2018-08-31T12:09:45.311Z,935.94
2018-08-31T12:10:45.330Z,935.97
2018-08-31T12:11:45.353Z,935.97
2018-08-31T12:12:45.524Z,935.98
2018-08-31T12:13:45.389Z,936.02
2018-08-31T12:14:45.412Z,936.00
2018-08-31T12:15:45.433Z,936.03
2018-08-31T12:16:45.449Z,936.04
2018-08-31T12:17:45.467Z,936.01
2018-08-31T12:18:45.590Z,936.04
2018-08-31T12:19:45.509Z,936.00
2018-08-31T12:20:45.531Z,936.01
2018-08-31T12:21:45.938Z,936.00
2018-08-31T12:22:45.965Z,936.01
2018-08-31T12:23:45.740Z,936.00
2018-08-31T12:24:45.607Z,935.99
2018-08-31T12:25:45.609Z,935.95
2018-08-31T12:26:45.644Z,935.92
2018-08-31T12:27:45.665Z,935.95
2018-08-31T12:28:45.824Z,935.92
2018-08-31T12:29:45.704Z,935.91
2018-08-31T12:30:45.710Z,935.92
2018-08-31T12:31:45.747Z,935.91
2018-08-31T12:32:45.748Z,935.91
2018-08-31T12:33:45.939Z,935.92
2018-08-31T12:34:45.807Z,935.93
2018-08-31T12:35:45.823Z,935.88